createdAt,value
2018-04-24T00:01:22.982Z,5.93
2018-04-24T00:03:51.589Z,5.50
2018-04-24T00:06:20.172Z,4.80
2018-04-24T00:08:48.773Z,5.40
2018-04-24T00:11:18.109Z,5.50
2018-04-24T00:13:46.721Z,5.17
2018-04-24T00:16:14.989Z,5.10
2018-04-24T00:18:43.576Z,4.23
2018-04-24T00:21:12.161Z,5.40
2018-04-24T00:23:41.513Z,5.70
2018-04-24T00:26:10.145Z,5.30
2018-04-24T00:28:38.821Z,5.80
2018-04-24T00:31:07.507Z,6.10
2018-04-24T00:33:36.090Z,5.67
2018-04-24T00:36:04.721Z,5.43
2018-04-24T00:38:33.469Z,5.30
2018-04-24T00:41:02.081Z,5.23
2018-04-24T00:43:30.668Z,5.13
2018-04-24T00:45:59.225Z,6.17
2018-04-24T00:48:27.825Z,5.70
2018-04-24T00:50:56.407Z,5.63
2018-04-24T00:53:36.067Z,5.77
2018-04-24T00:56:04.784Z,6.20
2018-04-24T00:58:33.181Z,5.97
2018-04-24T01:01:01.784Z,5.77
2018-04-24T01:03:30.350Z,7.90
2018-04-24T01:05:58.960Z,8.43
2018-04-24T01:08:27.533Z,6.13
2018-04-24T01:10:56.933Z,7.77
2018-04-24T01:13:25.501Z,6.33
2018-04-24T01:15:54.100Z,5.70
2018-04-24T01:18:22.696Z,6.03
2018-04-24T01:20:51.278Z,5.60
2018-04-24T01:23:19.857Z,5.73
2018-04-24T01:25:48.451Z,6.00
2018-04-24T01:28:17.039Z,5.73
2018-04-24T01:30:45.576Z,5.60
2018-04-24T01:33:14.177Z,8.87
2018-04-24T01:35:42.764Z,7.70
2018-04-24T01:38:11.363Z,7.57
2018-04-24T01:40:39.961Z,8.30
2018-04-24T01:43:08.565Z,7.43
2018-04-24T01:45:37.931Z,7.63
2018-04-24T01:48:06.515Z,8.70
2018-04-24T01:50:35.183Z,9.03
2018-04-24T01:53:03.766Z,6.87
2018-04-24T01:58:36.101Z,6.33
2018-04-24T02:01:04.388Z,8.07
2018-04-24T02:03:32.990Z,7.63
2018-04-24T02:06:01.521Z,7.20
2018-04-24T02:08:30.120Z,6.03
2018-04-24T02:10:58.702Z,7.53
2018-04-24T02:13:27.297Z,7.30
2018-04-24T02:15:55.872Z,7.13
2018-04-24T02:18:24.445Z,6.73
2018-04-24T02:20:53.024Z,6.97
2018-04-24T02:23:21.643Z,6.80
2018-04-24T02:25:50.998Z,7.53
2018-04-24T02:28:19.577Z,7.13
2018-04-24T02:30:48.194Z,7.53
2018-04-24T02:33:16.769Z,8.80
2018-04-24T02:35:45.354Z,6.70
2018-04-24T02:38:13.713Z,7.93
2018-04-24T02:40:42.285Z,8.77
2018-04-24T02:43:10.855Z,8.20
2018-04-24T02:45:39.447Z,7.10
2018-04-24T02:48:08.025Z,7.00
2018-04-24T02:50:36.048Z,6.20
2018-04-24T02:53:05.443Z,5.73
2018-04-24T02:55:34.804Z,6.13
2018-04-24T02:58:03.381Z,6.77
2018-04-24T03:00:31.949Z,7.17
2018-04-24T03:03:00.552Z,6.60
2018-04-24T03:05:29.141Z,9.00
2018-04-24T03:07:57.749Z,10.73
2018-04-24T03:10:26.341Z,9.23
2018-04-24T03:12:55.131Z,9.40
2018-04-24T03:15:23.765Z,7.83
2018-04-24T03:17:52.303Z,7.93
2018-04-24T03:20:20.917Z,8.60
2018-04-24T03:22:49.488Z,9.20
2018-04-24T03:25:18.838Z,7.77
2018-04-24T03:27:47.430Z,9.23
2018-04-24T03:30:15.997Z,8.40
2018-04-24T03:32:44.580Z,8.67
2018-04-24T03:35:13.190Z,8.07
2018-04-24T03:37:41.789Z,8.80
2018-04-24T03:40:10.371Z,9.20
2018-04-24T03:42:40.179Z,8.27
2018-04-24T03:45:08.833Z,8.73
2018-04-24T03:47:37.421Z,8.00
2018-04-24T03:50:05.709Z,8.93
2018-04-24T03:52:34.268Z,7.97
2018-04-24T03:55:02.856Z,8.07
2018-04-24T03:57:31.413Z,8.17
2018-04-24T04:00:00.013Z,8.47
2018-04-24T04:02:28.634Z,7.80
2018-04-24T04:04:57.227Z,7.83
2018-04-24T04:07:25.814Z,9.10
2018-04-24T04:09:54.387Z,8.87
2018-04-24T04:12:23.005Z,9.00
2018-04-24T04:14:52.347Z,8.50
2018-04-24T04:17:32.082Z,9.07
2018-04-24T04:20:11.869Z,9.50
2018-04-24T04:22:51.658Z,8.70
2018-04-24T04:25:20.241Z,9.83
2018-04-24T04:27:48.901Z,8.90
2018-04-24T04:30:18.725Z,9.43
2018-04-24T04:32:47.313Z,9.33
2018-04-24T04:35:15.898Z,10.40
2018-04-24T04:37:49.865Z,10.90
2018-04-24T04:40:18.427Z,8.97
2018-04-24T04:42:47.030Z,8.67
2018-04-24T04:45:15.601Z,8.47
2018-04-24T04:47:44.208Z,9.27
2018-04-24T04:50:12.773Z,8.97
2018-04-24T04:52:41.341Z,9.17
2018-04-24T04:55:09.921Z,9.60
2018-04-24T04:57:38.497Z,9.23
2018-04-24T05:00:07.105Z,8.00
2018-04-24T05:02:35.685Z,10.70
2018-04-24T05:05:03.977Z,10.67
2018-04-24T05:07:32.544Z,10.43
2018-04-24T05:10:01.918Z,10.03
2018-04-24T05:12:30.493Z,9.93
2018-04-24T05:14:59.074Z,10.23
2018-04-24T05:17:27.676Z,9.40
2018-04-24T05:19:56.261Z,8.40
2018-04-24T05:22:24.877Z,9.67
2018-04-24T05:24:53.460Z,9.17
2018-04-24T05:27:22.112Z,9.07
2018-04-24T05:29:50.702Z,8.17
2018-04-24T05:32:19.289Z,8.37
2018-04-24T05:34:47.861Z,8.60
2018-04-24T05:37:16.453Z,8.53
2018-04-24T05:39:45.021Z,8.37
2018-04-24T05:42:13.609Z,10.80
2018-04-24T05:44:42.387Z,9.27
2018-04-24T05:47:11.002Z,9.47
2018-04-24T05:49:39.633Z,8.63
2018-04-24T05:52:08.238Z,35.50
2018-04-24T05:54:36.830Z,15.50
2018-04-24T05:57:05.145Z,122.20
2018-04-24T05:59:33.752Z,61.17
2018-04-24T06:02:03.124Z,79.77
2018-04-24T06:04:31.720Z,40.90
2018-04-24T06:07:00.309Z,18.20
2018-04-24T06:09:28.917Z,12.53
2018-04-24T06:11:58.236Z,11.13
2018-04-24T06:14:26.870Z,9.27
2018-04-24T06:16:55.417Z,8.33
2018-04-24T06:19:24.112Z,8.17
2018-04-24T06:21:52.885Z,8.13
2018-04-24T06:24:21.459Z,7.50
2018-04-24T06:26:50.057Z,8.13
2018-04-24T06:29:18.615Z,7.60
2018-04-24T06:31:47.253Z,7.53
2018-04-24T06:34:15.831Z,7.37
2018-04-24T06:36:44.425Z,6.80
2018-04-24T06:39:13.002Z,7.60
2018-04-24T06:41:41.586Z,6.47
2018-04-24T06:44:10.194Z,7.17
2018-04-24T06:46:38.765Z,6.97
2018-04-24T06:49:07.384Z,6.57
2018-04-24T06:51:36.757Z,6.30
2018-04-24T06:54:05.236Z,6.20
2018-04-24T06:56:33.814Z,59.50
2018-04-24T06:59:02.383Z,7.03
2018-04-24T07:01:30.969Z,6.83
2018-04-24T07:03:59.537Z,6.00
2018-04-24T07:06:28.178Z,6.37
2018-04-24T07:08:56.767Z,5.87
2018-04-24T07:11:25.392Z,6.20
2018-04-24T07:13:54.157Z,5.53
2018-04-24T07:16:22.750Z,5.60
2018-04-24T07:18:51.314Z,5.90
2018-04-24T07:21:19.908Z,6.80
2018-04-24T07:23:48.472Z,5.00
2018-04-24T07:26:17.096Z,5.57
2018-04-24T07:28:45.708Z,5.20
2018-04-24T07:31:14.300Z,4.80
2018-04-24T07:33:42.872Z,4.77
2018-04-24T07:36:11.410Z,4.93
2018-04-24T07:38:40.014Z,4.97
2018-04-24T07:41:08.704Z,4.13
2018-04-24T07:43:37.397Z,4.37
2018-04-24T07:46:06.077Z,4.23
2018-04-24T07:48:34.690Z,4.50
2018-04-24T07:51:03.269Z,4.17
2018-04-24T07:53:31.849Z,4.37
2018-04-24T07:56:00.458Z,4.57
2018-04-24T07:58:29.797Z,4.87
2018-04-24T08:00:58.382Z,4.73
2018-04-24T08:03:26.989Z,4.80
2018-04-24T08:05:55.561Z,4.17
2018-04-24T08:08:24.170Z,4.13
2018-04-24T08:10:52.754Z,4.27
2018-04-24T08:13:21.355Z,4.10
2018-04-24T08:15:50.694Z,4.07
2018-04-24T08:18:19.298Z,4.10
2018-04-24T08:20:47.893Z,4.37
2018-04-24T08:23:16.483Z,4.10
2018-04-24T08:25:45.094Z,3.47
2018-04-24T08:28:13.760Z,3.70
2018-04-24T08:30:52.045Z,3.17
2018-04-24T08:33:20.399Z,3.87
2018-04-24T08:35:48.994Z,4.10
2018-04-24T08:38:17.569Z,3.80
2018-04-24T08:40:46.158Z,3.63
2018-04-24T08:43:19.012Z,3.80
2018-04-24T08:45:47.682Z,4.23
2018-04-24T08:48:17.033Z,4.23
2018-04-24T08:50:45.597Z,3.43
2018-04-24T08:53:14.182Z,3.67
2018-04-24T08:55:42.747Z,3.77
2018-04-24T08:58:11.328Z,3.63
2018-04-24T09:00:40.684Z,3.17
2018-04-24T09:03:09.295Z,3.27
2018-04-24T09:05:37.735Z,3.17
2018-04-24T09:08:06.335Z,3.17
2018-04-24T09:10:34.948Z,3.37
2018-04-24T09:13:03.586Z,2.87
2018-04-24T09:15:42.348Z,3.13
2018-04-24T09:18:10.919Z,3.20
2018-04-24T09:20:39.489Z,3.43
2018-04-24T09:23:08.066Z,2.97
2018-04-24T09:25:36.678Z,3.50
2018-04-24T09:28:05.329Z,3.17
2018-04-24T09:30:33.905Z,2.70
2018-04-24T09:33:02.513Z,3.23
2018-04-24T09:35:31.063Z,3.10
2018-04-24T09:37:59.378Z,2.83
2018-04-24T09:40:27.983Z,2.80
2018-04-24T09:42:56.557Z,3.80
2018-04-24T09:45:25.144Z,3.43
2018-04-24T09:47:53.751Z,3.73
2018-04-24T09:50:23.077Z,3.50
2018-04-24T09:52:51.671Z,3.20
2018-04-24T09:55:20.254Z,3.50
2018-04-24T09:57:48.852Z,3.40
2018-04-24T10:00:22.910Z,3.00
2018-04-24T10:02:52.311Z,3.50
2018-04-24T10:05:21.688Z,2.60
2018-04-24T10:07:50.330Z,2.90
2018-04-24T10:10:22.648Z,2.97
2018-04-24T10:12:52.023Z,3.03
2018-04-24T10:15:20.608Z,2.60
2018-04-24T10:17:49.176Z,2.77
2018-04-24T10:20:17.769Z,2.87
2018-04-24T10:22:46.386Z,3.03
2018-04-24T10:25:14.981Z,3.43
2018-04-24T10:27:43.568Z,2.80
2018-04-24T10:30:13.060Z,2.30
2018-04-24T10:32:41.674Z,2.50
2018-04-24T10:35:10.240Z,2.63
2018-04-24T10:37:39.597Z,2.73
2018-04-24T10:40:08.189Z,2.77
2018-04-24T10:42:36.805Z,2.87
2018-04-24T10:45:06.099Z,2.70
2018-04-24T10:47:34.778Z,3.50
2018-04-24T10:50:03.461Z,3.47
2018-04-24T10:52:32.054Z,3.00
2018-04-24T10:55:01.408Z,2.57
2018-04-24T10:57:29.977Z,2.90
2018-04-24T10:59:58.585Z,2.53
2018-04-24T11:02:27.157Z,2.60
2018-04-24T11:04:55.783Z,2.60
2018-04-24T11:07:24.385Z,2.50
2018-04-24T11:09:53.772Z,2.47
2018-04-24T11:12:22.462Z,2.60
2018-04-24T11:14:51.816Z,3.10
2018-04-24T11:17:20.429Z,2.63
2018-04-24T11:19:49.082Z,2.50
2018-04-24T11:22:17.666Z,2.37
2018-04-24T11:24:46.298Z,2.10
2018-04-24T11:27:14.849Z,2.17
2018-04-24T11:29:43.429Z,2.30
2018-04-24T11:32:12.026Z,2.17
2018-04-24T11:34:40.672Z,2.70
2018-04-24T11:37:09.264Z,2.23
2018-04-24T11:39:37.885Z,2.20
2018-04-24T11:42:06.500Z,2.33
2018-04-24T11:44:35.094Z,2.10
2018-04-24T11:47:03.511Z,2.17
2018-04-24T11:49:32.854Z,2.30
2018-04-24T11:52:01.628Z,2.43
2018-04-24T11:54:30.210Z,2.30
2018-04-24T11:56:58.815Z,2.23
2018-04-24T11:59:28.124Z,2.50
2018-04-24T12:01:57.433Z,2.10
2018-04-24T12:04:26.026Z,2.23
2018-04-24T12:06:54.364Z,2.37
2018-04-24T12:09:23.021Z,2.37
2018-04-24T12:11:51.635Z,2.23
2018-04-24T12:14:20.234Z,2.23
2018-04-24T12:16:48.825Z,2.40
2018-04-24T12:19:17.429Z,2.30
2018-04-24T12:21:46.025Z,2.00
2018-04-24T12:24:14.604Z,2.30
2018-04-24T12:26:43.185Z,2.10
2018-04-24T12:29:11.753Z,2.27
2018-04-24T12:31:40.346Z,2.17
2018-04-24T12:34:08.923Z,2.00
2018-04-24T12:36:37.515Z,2.10
2018-04-24T12:39:06.414Z,2.00
2018-04-24T12:41:35.986Z,2.33
2018-04-24T12:44:05.585Z,2.17
2018-04-24T12:46:35.168Z,2.27
2018-04-24T12:49:03.772Z,2.50
2018-04-24T12:51:33.377Z,2.27
2018-04-24T12:54:02.956Z,2.40
2018-04-24T12:56:32.533Z,2.60
2018-04-24T12:59:01.064Z,2.47
2018-04-24T13:01:29.835Z,2.87
2018-04-24T13:03:58.516Z,2.77
2018-04-24T13:06:27.216Z,2.40
2018-04-24T13:08:55.781Z,2.30
2018-04-24T13:11:24.397Z,2.60
2018-04-24T13:13:53.988Z,2.27
2018-04-24T13:16:23.576Z,2.10
2018-04-24T13:18:52.162Z,2.37
2018-04-24T13:21:20.761Z,2.33
2018-04-24T13:23:49.347Z,2.03
2018-04-24T13:26:23.833Z,2.17
2018-04-24T13:28:52.435Z,2.23
2018-04-24T13:31:21.098Z,2.30
2018-04-24T13:33:49.809Z,1.93
2018-04-24T13:36:18.346Z,2.27
2018-04-24T13:38:46.908Z,2.30
2018-04-24T13:41:15.596Z,2.20
2018-04-24T13:43:44.302Z,2.33
2018-04-24T13:46:12.888Z,2.20
2018-04-24T13:48:42.228Z,2.20
2018-04-24T13:51:10.821Z,2.13
2018-04-24T13:53:39.380Z,2.53
2018-04-24T13:56:08.029Z,2.10
2018-04-24T13:58:37.621Z,2.00
2018-04-24T14:01:06.223Z,2.27
2018-04-24T14:03:35.832Z,2.20
2018-04-24T14:06:05.428Z,2.40
2018-04-24T14:08:35.061Z,2.27
2018-04-24T14:11:04.643Z,2.07
2018-04-24T14:13:34.265Z,2.00
2018-04-24T14:16:03.626Z,1.80
2018-04-24T14:18:32.223Z,2.20
2018-04-24T14:21:01.836Z,1.90
2018-04-24T14:23:31.424Z,1.83
2018-04-24T14:26:01.068Z,2.20
2018-04-24T14:28:30.680Z,1.73
2018-04-24T14:31:00.300Z,1.90
2018-04-24T14:33:29.886Z,2.20
2018-04-24T14:35:59.792Z,1.90
2018-04-24T14:38:29.386Z,2.27
2018-04-24T14:40:59.018Z,2.20
2018-04-24T14:43:28.361Z,2.17
2018-04-24T14:45:56.955Z,2.10
2018-04-24T14:48:26.591Z,1.90
2018-04-24T14:50:56.177Z,2.27
2018-04-24T14:53:25.770Z,2.20
2018-04-24T14:55:55.391Z,2.20
2018-04-24T14:58:25.094Z,2.03
2018-04-24T15:00:54.930Z,2.10
2018-04-24T15:03:24.533Z,1.80
2018-04-24T15:05:54.126Z,1.90
2018-04-24T15:08:23.753Z,1.77
2018-04-24T15:10:53.363Z,1.60
2018-04-24T15:13:21.940Z,1.77
2018-04-24T15:15:50.530Z,1.77
2018-04-24T15:18:19.097Z,1.97
2018-04-24T15:20:47.746Z,2.07
2018-04-24T15:23:16.341Z,2.00
2018-04-24T15:25:44.985Z,1.97
2018-04-24T15:28:13.606Z,2.00
2018-04-24T15:30:42.300Z,1.80
2018-04-24T15:33:10.895Z,1.93
2018-04-24T15:35:39.573Z,1.80
2018-04-24T15:38:08.249Z,1.70
2018-04-24T15:40:39.419Z,1.50
2018-04-24T15:43:08.591Z,1.80
2018-04-24T15:45:37.134Z,2.00
2018-04-24T15:48:06.612Z,1.90
2018-04-24T15:50:35.296Z,1.80
2018-04-24T15:53:04.422Z,1.87
2018-04-24T15:55:33.042Z,1.80
2018-04-24T15:58:01.632Z,2.00
2018-04-24T16:00:30.234Z,2.17
2018-04-24T16:02:58.799Z,2.00
2018-04-24T16:05:28.353Z,1.60
2018-04-24T16:07:56.939Z,2.00
2018-04-24T16:10:25.237Z,1.70
2018-04-24T16:12:53.792Z,1.57
2018-04-24T16:15:22.368Z,1.80
2018-04-24T16:17:50.946Z,1.40
2018-04-24T16:20:19.553Z,1.83
2018-04-24T16:22:49.317Z,1.70
2018-04-24T16:25:17.618Z,1.37
2018-04-24T16:27:46.174Z,1.67
2018-04-24T16:30:15.789Z,1.63
2018-04-24T16:32:44.417Z,1.70
2018-04-24T16:35:13.832Z,1.70
2018-04-24T16:37:42.433Z,2.20
2018-04-24T16:40:11.027Z,1.73
2018-04-24T16:42:39.666Z,1.90
2018-04-24T16:45:08.259Z,2.10
2018-04-24T16:47:37.548Z,1.37
2018-04-24T16:50:06.111Z,1.90
2018-04-24T16:52:34.729Z,1.60
2018-04-24T16:55:03.787Z,1.87
2018-04-24T16:57:32.386Z,1.87
2018-04-24T17:00:00.955Z,1.87
2018-04-24T17:02:29.576Z,1.53
2018-04-24T17:04:58.961Z,1.60
2018-04-24T17:07:27.537Z,1.60
2018-04-24T17:09:56.112Z,1.70
2018-04-24T17:12:24.705Z,1.50
2018-04-24T17:14:53.337Z,1.87
2018-04-24T17:17:21.947Z,1.50
2018-04-24T17:19:50.531Z,1.60
2018-04-24T17:22:19.137Z,2.20
2018-04-24T17:24:47.694Z,2.20
2018-04-24T17:27:16.307Z,1.80
2018-04-24T17:29:44.883Z,1.60
2018-04-24T17:32:13.458Z,1.60
2018-04-24T17:34:42.066Z,1.70
2018-04-24T17:37:11.616Z,1.70
2018-04-24T17:39:40.360Z,1.67
2018-04-24T17:42:08.894Z,1.67
2018-04-24T17:44:37.472Z,1.63
2018-04-24T17:47:06.069Z,1.70
2018-04-24T17:49:34.629Z,1.60
2018-04-24T17:52:03.172Z,1.70
2018-04-24T17:54:31.680Z,1.67
2018-04-24T17:57:01.032Z,1.60
2018-04-24T17:59:29.636Z,1.83
2018-04-24T18:01:58.140Z,1.83
2018-04-24T18:04:27.451Z,1.90
2018-04-24T18:06:55.787Z,1.50
2018-04-24T18:09:24.398Z,1.73
2018-04-24T18:11:52.902Z,1.63
2018-04-24T18:14:22.199Z,1.53
2018-04-24T18:16:51.575Z,1.90
2018-04-24T18:19:20.128Z,1.67
2018-04-24T18:21:48.656Z,2.10
2018-04-24T18:24:17.924Z,1.73
2018-04-24T18:26:46.461Z,1.93
2018-04-24T18:29:14.971Z,2.73
2018-04-24T18:31:43.536Z,3.63
2018-04-24T18:34:12.116Z,2.20
2018-04-24T18:36:40.620Z,2.07
2018-04-24T18:39:09.148Z,1.83
2018-04-24T18:41:37.656Z,1.90
2018-04-24T18:44:06.191Z,1.93
2018-04-24T18:46:34.701Z,1.93
2018-04-24T18:49:03.338Z,1.80
2018-04-24T18:51:37.441Z,1.93
2018-04-24T18:54:05.712Z,1.83
2018-04-24T18:56:34.285Z,2.40
2018-04-24T18:59:02.827Z,1.90
2018-04-24T19:01:31.377Z,2.03
2018-04-24T19:03:59.564Z,2.00
2018-04-24T19:06:28.108Z,2.23
2018-04-24T19:08:56.633Z,1.87
2018-04-24T19:11:26.034Z,2.10
2018-04-24T19:13:54.434Z,2.03
2018-04-24T19:16:23.049Z,2.00
2018-04-24T19:18:57.009Z,2.27
2018-04-24T19:21:25.589Z,2.00
2018-04-24T19:23:54.193Z,1.93
2018-04-24T19:26:23.532Z,2.40
2018-04-24T19:28:52.132Z,1.90
2018-04-24T19:31:26.177Z,2.33
2018-04-24T19:33:54.930Z,1.73
2018-04-24T19:36:23.554Z,2.00
2018-04-24T19:38:58.239Z,1.87
2018-04-24T19:41:32.340Z,2.13
2018-04-24T19:44:01.171Z,1.90
2018-04-24T19:46:29.787Z,2.27
2018-04-24T19:49:07.409Z,1.80
2018-04-24T19:51:36.135Z,1.90
2018-04-24T19:54:04.693Z,2.00
2018-04-24T19:56:33.292Z,2.13
2018-04-24T19:59:02.010Z,2.30
2018-04-24T20:01:31.345Z,2.13
2018-04-24T20:03:59.918Z,2.30
2018-04-24T20:06:30.510Z,2.33
2018-04-24T20:08:59.117Z,1.93
2018-04-24T20:11:27.727Z,2.07
2018-04-24T20:13:56.336Z,2.40
2018-04-24T20:16:24.902Z,2.20
2018-04-24T20:18:53.538Z,2.13
2018-04-24T20:21:22.856Z,2.00
2018-04-24T20:23:58.855Z,2.23
2018-04-24T20:26:27.451Z,2.23
2018-04-24T20:28:56.036Z,2.20
2018-04-24T20:31:24.622Z,2.30
2018-04-24T20:33:52.974Z,2.30
2018-04-24T20:36:21.577Z,2.33
2018-04-24T20:38:50.169Z,2.43
2018-04-24T20:41:20.725Z,2.27
2018-04-24T20:43:49.300Z,2.43
2018-04-24T20:46:17.936Z,2.33
2018-04-24T20:48:46.208Z,2.53
2018-04-24T20:51:14.789Z,2.27
2018-04-24T20:53:43.452Z,2.20
2018-04-24T20:56:14.993Z,2.20
2018-04-24T20:58:43.740Z,2.20
2018-04-24T21:01:14.341Z,2.50
2018-04-24T21:03:54.062Z,2.73
2018-04-24T21:06:23.389Z,2.30
2018-04-24T21:08:51.958Z,2.37
2018-04-24T21:11:20.520Z,2.40
2018-04-24T21:13:49.119Z,2.37
2018-04-24T21:16:18.465Z,2.53
2018-04-24T21:18:47.873Z,2.53
2018-04-24T21:21:16.477Z,2.30
2018-04-24T21:23:45.068Z,2.67
2018-04-24T21:26:13.688Z,3.17
2018-04-24T21:28:42.430Z,2.70
2018-04-24T21:31:11.005Z,2.57
2018-04-24T21:33:39.570Z,3.00
2018-04-24T21:36:08.162Z,2.50
2018-04-24T21:38:36.794Z,3.00
2018-04-24T21:41:06.179Z,2.50
2018-04-24T21:43:38.897Z,2.83
2018-04-24T21:46:07.591Z,2.63
2018-04-24T21:48:36.181Z,2.40
2018-04-24T21:51:04.757Z,2.73
2018-04-24T21:53:33.317Z,2.67
2018-04-24T21:56:01.901Z,2.63
2018-04-24T21:58:30.501Z,2.70
2018-04-24T22:00:59.102Z,2.90
2018-04-24T22:03:27.726Z,3.03
2018-04-24T22:05:56.315Z,3.20
2018-04-24T22:08:24.869Z,3.00
2018-04-24T22:10:53.481Z,3.00
2018-04-24T22:13:22.877Z,2.90
2018-04-24T22:15:51.590Z,2.80
2018-04-24T22:18:20.149Z,2.70
2018-04-24T22:20:48.740Z,3.27
2018-04-24T22:23:18.124Z,2.90
2018-04-24T22:25:46.710Z,3.10
2018-04-24T22:28:15.727Z,3.00
2018-04-24T22:30:44.445Z,3.50
2018-04-24T22:33:13.117Z,2.73
2018-04-24T22:35:41.851Z,2.93
2018-04-24T22:38:10.416Z,3.23
2018-04-24T22:40:39.029Z,3.03
2018-04-24T22:43:07.602Z,2.83
2018-04-24T22:45:36.221Z,3.37
2018-04-24T22:48:04.856Z,3.17
2018-04-24T22:50:33.431Z,3.20
2018-04-24T22:53:02.009Z,3.00
2018-04-24T22:55:30.601Z,3.00
2018-04-24T22:57:59.203Z,3.03
2018-04-24T23:00:27.748Z,3.27
2018-04-24T23:02:56.336Z,3.00
2018-04-24T23:05:24.885Z,3.40
2018-04-24T23:07:54.249Z,3.30
2018-04-24T23:10:34.170Z,3.10
2018-04-24T23:13:13.941Z,2.90
2018-04-24T23:15:53.839Z,3.10
2018-04-24T23:18:33.697Z,3.27
2018-04-24T23:21:01.101Z,3.33
2018-04-24T23:23:29.670Z,3.70
2018-04-24T23:25:58.249Z,3.10
2018-04-24T23:28:26.864Z,3.50
2018-04-24T23:30:55.446Z,3.03
2018-04-24T23:33:24.016Z,2.90
2018-04-24T23:35:52.613Z,3.40
2018-04-24T23:38:21.187Z,3.20
2018-04-24T23:40:49.182Z,3.20
2018-04-24T23:43:17.772Z,3.07
2018-04-24T23:45:47.150Z,3.43
2018-04-24T23:48:15.776Z,3.50
2018-04-24T23:50:44.358Z,3.50
2018-04-24T23:53:12.953Z,3.17
2018-04-24T23:55:41.515Z,3.60
2018-04-24T23:58:10.556Z,3.60
